createdAt,value
2023-02-04T00:00:12.005Z,61.70
2023-02-04T00:02:42.585Z,61.20
2023-02-04T00:05:13.834Z,62.00
2023-02-04T00:07:44.310Z,61.60
2023-02-04T00:10:14.536Z,61.70
2023-02-04T00:12:44.624Z,62.20
2023-02-04T00:15:16.524Z,62.40
2023-02-04T00:17:46.559Z,62.30
2023-02-04T00:20:16.735Z,62.40
2023-02-04T00:22:46.862Z,62.60
2023-02-04T00:25:17.866Z,63.30
2023-02-04T00:27:48.003Z,63.80
2023-02-04T00:30:20.034Z,64.70
2023-02-04T00:32:50.228Z,66.00
2023-02-04T00:35:20.632Z,66.70
2023-02-04T00:37:50.690Z,66.20
2023-02-04T00:40:21.410Z,66.10
2023-02-04T00:42:51.453Z,65.90
2023-02-04T00:45:23.343Z,64.90
2023-02-04T00:47:53.361Z,64.40
2023-02-04T00:50:23.526Z,63.30
2023-02-04T00:52:53.570Z,63.30
2023-02-04T00:55:23.888Z,62.90
2023-02-04T00:57:54.169Z,63.10
2023-02-04T01:00:26.612Z,62.80
2023-02-04T01:02:56.973Z,62.90
2023-02-04T01:05:27.199Z,63.70
2023-02-04T01:07:57.631Z,64.50
2023-02-04T01:10:28.144Z,65.90
2023-02-04T01:12:58.654Z,67.70
2023-02-04T01:15:30.423Z,67.90
2023-02-04T01:18:00.493Z,68.00
2023-02-04T01:20:31.196Z,67.60
2023-02-04T01:23:01.498Z,66.10
2023-02-04T01:25:31.965Z,65.50
2023-02-04T01:28:02.316Z,64.70
2023-02-04T01:30:34.355Z,63.60
2023-02-04T01:33:04.456Z,63.50
2023-02-04T01:35:34.605Z,63.20
2023-02-04T01:38:04.757Z,63.70
2023-02-04T01:43:09.298Z,65.40
2023-02-04T01:45:40.136Z,65.40
2023-02-04T01:48:10.881Z,65.00
2023-02-04T01:50:41.225Z,64.40
2023-02-04T01:53:11.717Z,63.60
2023-02-04T01:55:41.891Z,63.70
2023-02-04T01:58:16.435Z,63.50
2023-02-04T02:00:47.397Z,64.00
2023-02-04T02:03:17.612Z,64.60
2023-02-04T02:05:50.458Z,64.90
2023-02-04T02:08:21.241Z,65.10
2023-02-04T02:10:52.359Z,65.20
2023-02-04T02:13:24.425Z,64.50
2023-02-04T02:15:54.522Z,64.90
2023-02-04T02:18:25.898Z,64.90
2023-02-04T02:20:56.769Z,65.10
2023-02-04T02:23:31.134Z,65.40
2023-02-04T02:26:03.208Z,65.40
2023-02-04T02:28:33.692Z,64.70
2023-02-04T02:31:03.929Z,64.60
2023-02-04T02:33:34.233Z,64.30
2023-02-04T02:36:04.907Z,64.00
2023-02-04T02:38:35.312Z,63.50
2023-02-04T02:41:10.995Z,62.40
2023-02-04T02:43:41.849Z,61.80
2023-02-04T02:46:12.581Z,61.60
2023-02-04T02:48:42.779Z,61.40
2023-02-04T02:51:12.856Z,61.40
2023-02-04T02:56:20.880Z,61.00
2023-02-04T02:58:50.956Z,61.90
2023-02-04T03:01:21.569Z,62.30
2023-02-04T03:03:54.399Z,64.00
2023-02-04T03:06:29.025Z,63.80
2023-02-04T03:08:59.898Z,64.70
2023-02-04T03:11:33.458Z,65.40
2023-02-04T03:16:17.452Z,64.90
2023-02-04T03:18:47.652Z,65.40
2023-02-04T03:21:17.857Z,65.30
2023-02-04T03:23:48.097Z,65.40
2023-02-04T03:26:18.652Z,65.50
2023-02-04T03:28:49.169Z,65.80
2023-02-04T03:33:55.354Z,66.00
2023-02-04T03:41:19.870Z,66.60
2023-02-04T03:43:49.940Z,67.30
2023-02-04T03:46:20.437Z,67.30
2023-02-04T03:48:50.700Z,67.30
2023-02-04T03:51:20.865Z,67.30
2023-02-04T03:53:50.934Z,67.40
2023-02-04T03:56:22.947Z,67.50
2023-02-04T03:58:53.013Z,67.70
2023-02-04T04:01:23.156Z,68.00
2023-02-04T04:03:53.376Z,68.10
2023-02-04T04:06:23.733Z,68.30
2023-02-04T04:08:53.833Z,68.30
2023-02-04T04:11:25.828Z,68.50
2023-02-04T04:13:55.908Z,68.50
2023-02-04T04:16:26.053Z,68.60
2023-02-04T04:18:56.094Z,68.60
2023-02-04T04:21:26.433Z,68.70
2023-02-04T04:23:56.549Z,69.00
2023-02-04T04:26:28.261Z,69.20
2023-02-04T04:28:58.356Z,69.50
2023-02-04T04:31:28.662Z,69.50
2023-02-04T04:33:58.767Z,70.00
2023-02-04T04:36:28.904Z,70.40
2023-02-04T04:39:00.176Z,70.80
2023-02-04T04:41:31.918Z,71.60
2023-02-04T04:44:02.175Z,72.20
2023-02-04T04:46:32.540Z,72.50
2023-02-04T04:49:02.716Z,72.90
2023-02-04T04:51:33.310Z,73.40
2023-02-04T04:54:03.367Z,74.40
2023-02-04T04:56:35.082Z,74.90
2023-02-04T04:59:05.602Z,75.10
2023-02-04T05:01:35.855Z,75.40
2023-02-04T05:04:06.176Z,75.90
2023-02-04T05:06:36.542Z,76.80
2023-02-04T05:09:06.893Z,76.90
2023-02-04T05:11:38.951Z,76.60
2023-02-04T05:14:09.072Z,76.30
2023-02-04T05:16:39.316Z,76.30
2023-02-04T05:19:09.755Z,76.00
2023-02-04T05:21:39.948Z,76.00
2023-02-04T05:24:10.096Z,75.90
2023-02-04T05:26:42.176Z,75.70
2023-02-04T05:29:12.480Z,75.40
2023-02-04T05:31:42.652Z,75.20
2023-02-04T05:34:12.798Z,75.10
2023-02-04T05:36:42.856Z,75.10
2023-02-04T05:39:13.277Z,75.10
2023-02-04T05:41:45.024Z,75.30
2023-02-04T05:44:15.244Z,75.40
2023-02-04T05:46:45.387Z,75.10
2023-02-04T05:49:15.601Z,75.50
2023-02-04T05:51:45.701Z,75.30
2023-02-04T05:54:19.977Z,75.00
2023-02-04T05:56:52.427Z,74.90
2023-02-04T05:59:22.430Z,74.40
2023-02-04T06:01:52.558Z,73.90
2023-02-04T06:04:22.704Z,73.40
2023-02-04T06:06:52.827Z,73.00
2023-02-04T06:09:22.931Z,72.60
2023-02-04T06:11:54.646Z,72.30
2023-02-04T06:14:24.698Z,72.40
2023-02-04T06:16:55.010Z,72.60
2023-02-04T06:19:25.123Z,72.60
2023-02-04T06:21:55.369Z,72.60
2023-02-04T06:24:25.458Z,72.50
2023-02-04T06:26:57.653Z,72.50
2023-02-04T06:29:27.752Z,72.80
2023-02-04T06:31:58.125Z,73.00
2023-02-04T06:34:28.658Z,73.30
2023-02-04T06:36:58.772Z,73.30
2023-02-04T06:41:39.233Z,72.80
2023-02-04T06:44:09.729Z,73.60
2023-02-04T06:46:39.962Z,73.50
2023-02-04T06:49:10.461Z,74.10
2023-02-04T06:51:40.560Z,74.60
2023-02-04T06:54:10.866Z,75.10
2023-02-04T06:56:44.191Z,75.60
2023-02-04T06:59:14.344Z,75.90
2023-02-04T07:01:44.707Z,76.00
2023-02-04T07:04:14.842Z,76.20
2023-02-04T07:06:45.062Z,76.50
2023-02-04T07:11:26.440Z,76.40
2023-02-04T07:13:56.504Z,76.80
2023-02-04T07:16:26.589Z,76.50
2023-02-04T07:18:56.845Z,76.40
2023-02-04T07:21:27.799Z,76.10
2023-02-04T07:23:57.889Z,76.30
2023-02-04T07:26:30.066Z,76.10
2023-02-04T07:29:00.399Z,76.50
2023-02-04T07:31:30.755Z,76.70
2023-02-04T07:34:01.117Z,77.40
2023-02-04T07:36:31.287Z,78.10
2023-02-04T07:39:01.495Z,78.50
2023-02-04T07:41:33.206Z,78.40
2023-02-04T07:44:03.298Z,79.00
2023-02-04T07:46:33.767Z,79.50
2023-02-04T07:49:03.895Z,79.50
2023-02-04T07:51:34.024Z,80.20
2023-02-04T07:54:04.289Z,81.30
2023-02-04T07:56:35.980Z,80.60
2023-02-04T07:59:06.455Z,81.10
2023-02-04T08:01:37.282Z,81.00
2023-02-04T08:04:07.874Z,81.00
2023-02-04T08:06:37.972Z,80.80
2023-02-04T08:09:08.470Z,80.70
2023-02-04T08:11:40.420Z,80.60
2023-02-04T08:14:10.701Z,80.70
2023-02-04T08:16:41.101Z,80.70
2023-02-04T08:19:11.329Z,80.00
2023-02-04T08:21:41.393Z,80.30
2023-02-04T08:24:11.504Z,80.80
2023-02-04T08:26:43.987Z,81.60
2023-02-04T08:29:14.252Z,82.40
2023-02-04T08:31:44.481Z,83.10
2023-02-04T08:34:14.574Z,83.50
2023-02-04T08:36:45.871Z,84.00
2023-02-04T08:39:15.972Z,84.30
2023-02-04T08:41:48.662Z,84.80
2023-02-04T08:44:18.740Z,85.20
2023-02-04T08:46:49.087Z,84.90
2023-02-04T08:49:19.439Z,84.30
2023-02-04T08:51:49.634Z,84.10
2023-02-04T08:55:16.566Z,83.50
2023-02-04T08:57:46.732Z,84.90
2023-02-04T09:00:17.948Z,85.90
2023-02-04T09:02:48.164Z,86.60
2023-02-04T09:05:18.419Z,87.10
2023-02-04T09:07:48.571Z,87.20
2023-02-04T09:10:21.055Z,87.40
2023-02-04T09:12:56.690Z,88.30
2023-02-04T09:15:27.419Z,88.80
2023-02-04T09:18:05.176Z,89.20
2023-02-04T09:20:37.764Z,88.50
2023-02-04T09:23:09.659Z,88.80
2023-02-04T09:25:41.511Z,88.60
2023-02-04T09:28:13.377Z,88.60
2023-02-04T09:30:44.585Z,89.50
2023-02-04T09:33:15.648Z,89.30
2023-02-04T09:40:57.652Z,90.30
2023-02-04T09:43:29.020Z,90.70
2023-02-04T09:45:59.821Z,90.70
2023-02-04T09:48:30.036Z,90.50
2023-02-04T09:51:07.808Z,90.70
2023-02-04T09:53:39.073Z,91.10
2023-02-04T09:56:14.869Z,90.90
2023-02-04T09:58:45.667Z,90.90
2023-02-04T10:01:18.760Z,91.10
2023-02-04T10:03:51.985Z,91.40
2023-02-04T10:06:24.203Z,91.60
2023-02-04T10:08:54.973Z,91.80
2023-02-04T10:11:28.847Z,91.70
2023-02-04T10:13:59.943Z,91.80
2023-02-04T10:16:33.293Z,91.80
2023-02-04T10:19:06.046Z,92.10
2023-02-04T10:21:38.167Z,92.10
2023-02-04T10:24:13.425Z,92.90
2023-02-04T10:26:45.170Z,93.50
2023-02-04T10:29:19.421Z,93.80
2023-02-04T10:31:51.696Z,93.40
2023-02-04T10:34:23.459Z,94.10
2023-02-04T10:36:58.239Z,95.30
2023-02-04T10:39:30.083Z,96.10
2023-02-04T10:42:03.201Z,96.30
2023-02-04T10:44:34.755Z,96.80
2023-02-04T10:47:06.576Z,96.70
2023-02-04T10:49:37.176Z,96.90
2023-02-04T10:52:19.093Z,97.10
2023-02-04T10:54:49.803Z,97.40
2023-02-04T10:57:24.608Z,97.60
2023-02-04T10:59:57.925Z,97.50
2023-02-04T11:02:44.451Z,97.80
2023-02-04T11:05:18.112Z,97.60
2023-02-04T11:07:49.153Z,97.90
2023-02-04T11:10:21.499Z,98.20
2023-02-04T11:13:04.320Z,98.50
2023-02-04T11:15:49.170Z,98.20
2023-02-04T11:18:32.203Z,98.20
2023-02-04T11:21:02.622Z,97.70
2023-02-04T11:23:38.338Z,98.10
2023-02-04T11:26:11.601Z,98.80
2023-02-04T11:29:10.464Z,99.40
2023-02-04T11:32:00.591Z,99.20
2023-02-04T11:34:50.185Z,99.20
2023-02-04T11:37:37.565Z,98.90
2023-02-04T11:40:30.755Z,98.90
2023-02-04T11:43:03.104Z,98.30
2023-02-04T11:45:37.321Z,98.20
2023-02-04T11:48:14.874Z,97.80
2023-02-04T11:50:46.015Z,98.00
2023-02-04T11:53:16.139Z,97.90
2023-02-04T11:55:49.909Z,98.80
2023-02-04T11:58:26.778Z,99.80
2023-02-04T12:00:58.638Z,99.90
2023-02-04T12:03:31.138Z,99.90
2023-02-04T12:06:02.111Z,99.90
2023-02-04T12:08:37.344Z,99.90
2023-02-04T12:11:12.736Z,99.90
2023-02-04T12:13:53.404Z,99.90
2023-02-04T12:16:25.803Z,99.80
2023-02-04T12:18:56.173Z,99.70
2023-02-04T12:21:26.264Z,99.20
2023-02-04T12:23:56.467Z,99.10
2023-02-04T12:26:26.662Z,99.40
2023-02-04T12:28:56.762Z,99.20
2023-02-04T12:31:28.728Z,99.20
2023-02-04T12:33:58.882Z,99.10
2023-02-04T12:36:30.548Z,98.80
2023-02-04T12:39:01.320Z,98.60
2023-02-04T12:41:31.503Z,98.50
2023-02-04T12:44:02.012Z,98.30
2023-02-04T12:46:34.058Z,98.10
2023-02-04T12:49:04.221Z,97.90
2023-02-04T12:51:34.497Z,98.10
2023-02-04T12:54:04.574Z,98.20
2023-02-04T12:56:34.714Z,98.10
2023-02-04T12:59:04.840Z,97.90
2023-02-04T13:01:36.575Z,97.80
2023-02-04T13:04:06.933Z,97.60
2023-02-04T13:06:37.379Z,97.30
2023-02-04T13:09:07.463Z,96.90
2023-02-04T13:11:37.603Z,96.70
2023-02-04T13:14:07.700Z,96.40
2023-02-04T13:16:39.706Z,96.20
2023-02-04T13:19:09.748Z,95.80
2023-02-04T13:21:39.866Z,95.70
2023-02-04T13:24:10.383Z,95.10
2023-02-04T13:26:40.496Z,94.90
2023-02-04T13:29:10.613Z,94.60
2023-02-04T13:31:42.559Z,94.70
2023-02-04T13:34:12.885Z,94.30
2023-02-04T13:36:44.306Z,94.50
2023-02-04T13:39:15.123Z,94.60
2023-02-04T13:41:45.250Z,94.40
2023-02-04T13:44:15.549Z,93.70
2023-02-04T13:46:47.343Z,93.40
2023-02-04T13:49:17.405Z,92.90
2023-02-04T13:51:47.538Z,92.30
2023-02-04T13:54:17.658Z,91.60
2023-02-04T13:56:47.914Z,92.40
2023-02-04T13:59:19.686Z,92.30
2023-02-04T14:01:52.582Z,93.00
2023-02-04T14:04:22.699Z,91.80
2023-02-04T14:06:53.237Z,91.20
2023-02-04T14:09:23.729Z,90.80
2023-02-04T14:11:54.058Z,91.30
2023-02-04T14:14:24.167Z,91.20
2023-02-04T14:16:56.169Z,91.00
2023-02-04T14:19:28.256Z,90.70
2023-02-04T14:21:59.165Z,90.10
2023-02-04T14:24:29.653Z,89.90
2023-02-04T14:26:59.765Z,89.80
2023-02-04T14:29:29.812Z,89.60
2023-02-04T14:32:01.646Z,87.70
2023-02-04T14:34:31.776Z,87.20
2023-02-04T14:37:02.032Z,87.20
2023-02-04T14:39:32.260Z,86.60
2023-02-04T14:42:05.274Z,85.90
2023-02-04T14:44:35.586Z,86.90
2023-02-04T14:47:07.611Z,88.10
2023-02-04T14:49:38.665Z,86.40
2023-02-04T14:52:10.440Z,84.80
2023-02-04T14:54:40.577Z,84.80
2023-02-04T14:57:12.602Z,86.20
2023-02-04T14:59:42.700Z,86.80
2023-02-04T15:02:17.057Z,87.20
2023-02-04T15:04:47.295Z,87.20
2023-02-04T15:07:17.443Z,86.40
2023-02-04T15:09:47.503Z,85.30
2023-02-04T15:12:17.582Z,85.20
2023-02-04T15:14:47.680Z,86.40
2023-02-04T15:17:19.520Z,87.00
2023-02-04T15:19:49.836Z,86.70
2023-02-04T15:22:19.989Z,86.90
2023-02-04T15:24:50.724Z,86.60
2023-02-04T15:27:20.947Z,85.80
2023-02-04T15:29:50.943Z,85.90
2023-02-04T15:32:22.752Z,84.50
2023-02-04T15:34:53.017Z,81.80
2023-02-04T15:37:23.678Z,81.40
2023-02-04T15:39:55.321Z,79.20
2023-02-04T15:42:26.860Z,79.10
2023-02-04T15:44:57.237Z,79.90
2023-02-04T15:47:28.964Z,79.80
2023-02-04T15:49:59.015Z,80.10
2023-02-04T15:52:29.423Z,80.40
2023-02-04T15:54:59.680Z,79.80
2023-02-04T15:57:29.785Z,79.60
2023-02-04T16:00:00.176Z,78.20
2023-02-04T16:02:32.353Z,77.00
2023-02-04T16:05:02.615Z,76.70
2023-02-04T16:07:32.737Z,76.70
2023-02-04T16:10:02.780Z,76.70
2023-02-04T16:12:32.895Z,74.40
2023-02-04T16:15:02.944Z,74.50
2023-02-04T16:17:35.205Z,74.10
2023-02-04T16:20:05.729Z,73.40
2023-02-04T16:22:36.217Z,73.10
2023-02-04T16:25:07.397Z,72.10
2023-02-04T16:27:37.708Z,73.40
2023-02-04T16:30:08.719Z,73.90
2023-02-04T16:32:40.416Z,73.50
2023-02-04T16:35:11.030Z,73.90
2023-02-04T16:37:41.478Z,74.10
2023-02-04T16:40:14.752Z,73.10
2023-02-04T16:42:44.848Z,73.90
2023-02-04T16:45:15.169Z,73.30
2023-02-04T16:47:46.869Z,73.60
2023-02-04T16:50:17.219Z,73.80
2023-02-04T16:52:47.334Z,75.30
2023-02-04T16:55:17.629Z,75.40
2023-02-04T16:57:47.810Z,74.30
2023-02-04T17:00:18.461Z,73.50
2023-02-04T17:02:50.682Z,74.30
2023-02-04T17:05:20.851Z,74.40
2023-02-04T17:07:51.191Z,74.50
2023-02-04T17:10:41.921Z,74.90
2023-02-04T17:13:12.010Z,75.90
2023-02-04T17:15:42.154Z,75.00
2023-02-04T17:18:13.882Z,75.10
2023-02-04T17:20:44.125Z,74.90
2023-02-04T17:23:14.236Z,75.80
2023-02-04T17:25:44.348Z,75.40
2023-02-04T17:28:15.121Z,76.00
2023-02-04T17:30:45.297Z,74.80
2023-02-04T17:33:17.278Z,73.30
2023-02-04T17:35:47.839Z,74.60
2023-02-04T17:38:18.237Z,76.70
2023-02-04T17:40:48.812Z,77.20
2023-02-04T17:43:19.070Z,74.70
2023-02-04T17:45:49.464Z,76.10
2023-02-04T17:48:21.653Z,75.90
2023-02-04T17:50:51.698Z,75.50
2023-02-04T17:53:22.400Z,75.60
2023-02-04T17:55:52.873Z,74.70
2023-02-04T17:58:26.236Z,75.80
2023-02-04T18:00:58.296Z,73.90
2023-02-04T18:03:31.664Z,72.40
2023-02-04T18:06:18.702Z,70.90
2023-02-04T18:08:48.885Z,69.80
2023-02-04T18:11:22.373Z,70.50
2023-02-04T18:13:53.036Z,70.90
2023-02-04T18:16:27.215Z,70.80
2023-02-04T18:19:01.701Z,69.40
2023-02-04T18:21:34.450Z,69.10
2023-02-04T18:24:18.708Z,70.10
2023-02-04T18:26:50.821Z,73.60
2023-02-04T18:29:36.236Z,72.20
2023-02-04T18:32:13.089Z,69.40
2023-02-04T18:34:47.462Z,68.80
2023-02-04T18:37:32.810Z,69.90
2023-02-04T18:40:31.287Z,70.40
2023-02-04T18:43:18.886Z,70.10
2023-02-04T18:45:48.995Z,69.60
2023-02-04T18:48:57.667Z,68.80
2023-02-04T18:51:32.569Z,69.50
2023-02-04T18:54:20.514Z,70.20
2023-02-04T18:56:51.565Z,71.20
2023-02-04T18:59:22.150Z,71.50
2023-02-04T19:01:53.205Z,71.60
2023-02-04T19:04:26.027Z,71.90
2023-02-04T19:07:00.334Z,72.20
2023-02-04T19:09:32.955Z,73.20
2023-02-04T19:12:20.247Z,71.60
2023-02-04T19:14:50.515Z,72.00
2023-02-04T19:17:25.835Z,72.20
2023-02-04T19:20:00.815Z,72.90
2023-02-04T19:22:44.330Z,74.10
2023-02-04T19:25:31.547Z,73.90
2023-02-04T19:28:03.062Z,74.90
2023-02-04T19:30:48.470Z,74.70
2023-02-04T19:33:23.710Z,75.80
2023-02-04T19:35:53.738Z,76.30
2023-02-04T19:38:40.185Z,76.60
2023-02-04T19:41:30.172Z,76.70
2023-02-04T19:44:27.834Z,77.70
2023-02-04T19:46:59.746Z,78.90
2023-02-04T19:49:36.055Z,80.70
2023-02-04T19:52:21.446Z,80.00
2023-02-04T19:54:53.196Z,79.70
2023-02-04T19:57:27.223Z,80.00
2023-02-04T19:59:59.136Z,80.10
2023-02-04T20:02:35.977Z,78.60
2023-02-04T20:05:18.318Z,79.10
2023-02-04T20:07:48.457Z,77.50
2023-02-04T20:10:26.568Z,77.40
2023-02-04T20:13:01.146Z,77.90
2023-02-04T20:15:32.460Z,79.00
2023-02-04T20:18:02.867Z,80.20
2023-02-04T20:20:34.076Z,80.40
2023-02-04T20:23:04.808Z,80.80
2023-02-04T20:25:45.783Z,80.70
2023-02-04T20:28:37.543Z,78.80
2023-02-04T20:31:27.158Z,78.90
2023-02-04T20:33:59.896Z,78.70
2023-02-04T20:36:42.895Z,79.80
2023-02-04T20:39:37.733Z,80.00
2023-02-04T20:42:29.250Z,81.00
2023-02-04T20:45:12.186Z,80.60
2023-02-04T20:47:42.684Z,79.40
2023-02-04T20:50:41.997Z,80.20
2023-02-04T20:53:23.288Z,81.90
2023-02-04T20:55:56.042Z,82.30
2023-02-04T20:58:30.355Z,82.30
2023-02-04T21:01:00.603Z,82.20
2023-02-04T21:03:32.551Z,81.90
2023-02-04T21:06:03.729Z,83.00
2023-02-04T21:08:39.506Z,83.20
2023-02-04T21:11:10.011Z,83.30
2023-02-04T21:13:41.749Z,83.80
2023-02-04T21:16:12.073Z,85.20
2023-02-04T21:18:42.355Z,85.30
2023-02-04T21:21:12.805Z,85.90
2023-02-04T21:23:43.577Z,85.50
2023-02-04T21:26:13.724Z,85.40
2023-02-04T21:28:45.511Z,86.20
2023-02-04T21:31:15.723Z,86.90
2023-02-04T21:33:46.280Z,86.80
2023-02-04T21:36:16.379Z,88.20
2023-02-04T21:38:47.762Z,88.70
2023-02-04T21:41:17.997Z,89.30
2023-02-04T21:43:50.205Z,90.00
2023-02-04T21:46:21.088Z,90.00
2023-02-04T21:48:51.454Z,90.10
2023-02-04T21:51:21.531Z,90.20
2023-02-04T21:53:51.970Z,90.40
2023-02-04T21:56:22.257Z,90.80
2023-02-04T21:58:54.984Z,91.20
2023-02-04T22:01:25.165Z,91.60
2023-02-04T22:03:55.407Z,91.90
2023-02-04T22:06:25.587Z,92.50
2023-02-04T22:08:55.716Z,93.50
2023-02-04T22:11:25.868Z,94.00
2023-02-04T22:14:14.584Z,93.80
2023-02-04T22:16:45.551Z,94.20
2023-02-04T22:19:15.710Z,94.40
2023-02-04T22:21:45.864Z,94.60
2023-02-04T22:24:16.002Z,94.70
2023-02-04T22:26:46.292Z,95.20
2023-02-04T22:29:22.349Z,95.80
2023-02-04T22:31:52.542Z,97.20
2023-02-04T22:34:22.934Z,97.60
2023-02-04T22:36:53.211Z,98.30
2023-02-04T22:39:23.570Z,98.50
2023-02-04T22:41:53.626Z,98.60
2023-02-04T22:44:25.368Z,99.20
2023-02-04T22:46:55.633Z,99.50
2023-02-04T22:49:25.837Z,99.90
2023-02-04T22:51:55.880Z,99.90
2023-02-04T22:54:26.028Z,99.90
2023-02-04T22:56:58.424Z,99.90
2023-02-04T22:59:30.701Z,99.90
2023-02-04T23:02:01.248Z,99.90
2023-02-04T23:04:31.402Z,99.90
2023-02-04T23:07:05.100Z,99.90
2023-02-04T23:09:35.629Z,99.90
2023-02-04T23:12:13.329Z,99.90
2023-02-04T23:14:46.525Z,99.90
2023-02-04T23:17:18.283Z,99.90
2023-02-04T23:19:48.602Z,99.90
2023-02-04T23:22:19.244Z,99.90
2023-02-04T23:24:50.220Z,99.90
2023-02-04T23:27:20.296Z,99.90
2023-02-04T23:29:52.049Z,99.90
2023-02-04T23:32:22.121Z,99.90
2023-02-04T23:34:52.260Z,99.90
2023-02-04T23:37:22.392Z,99.90
2023-02-04T23:39:52.781Z,99.90
2023-02-04T23:42:22.858Z,99.90
2023-02-04T23:44:54.695Z,99.90
2023-02-04T23:47:24.820Z,99.90
2023-02-04T23:49:55.130Z,99.90
2023-02-04T23:52:25.223Z,99.90
2023-02-04T23:54:55.307Z,99.90
2023-02-04T23:57:25.587Z,99.90
2023-02-04T23:59:57.329Z,99.90
